Time;durP1;ratioP1;P1;durP2;ratioP2;P2;SDS_P1;SDS_P2;PMS_P1;PMS_P2;Temp;Humidity;BMP_temperature;BMP_pressure;BME280_temperature;BME280_humidity;BME280_pressure;Samples;Min_cycle;Max_cycle;Signal;HPM_P1;HPM_P2
2024/01/08 00:00:47;;;;;;;11.40;8.70;;;;;;;-4.92;100.00;100691.98;105674;1254;60669;-74
2024/01/08 00:03:15;;;;;;;13.60;8.20;;;;;;;-4.91;100.00;100690.62;105641;1254;74348;-73
2024/01/08 00:05:43;;;;;;;9.90;7.20;;;;;;;-4.88;100.00;100702.56;105674;1257;63711;-72
2024/01/08 00:08:10;;;;;;;12.00;7.20;;;;;;;-4.88;100.00;100708.02;105664;1257;72627;-74
2024/01/08 00:10:37;;;;;;;12.90;8.30;;;;;;;-4.90;100.00;100701.86;105654;1257;61646;-75
2024/01/08 00:13:04;;;;;;;11.00;8.10;;;;;;;-4.95;100.00;100714.81;105729;1264;60582;-73
2024/01/08 00:15:32;;;;;;;12.20;7.60;;;;;;;-5.01;100.00;100711.04;105705;1254;73818;-72
2024/01/08 00:17:59;;;;;;;11.60;8.10;;;;;;;-5.03;100.00;100713.07;105658;1259;62404;-75
2024/01/08 00:20:26;;;;;;;13.40;8.30;;;;;;;-5.01;100.00;100718.36;105673;1257;71645;-73
2024/01/08 00:22:53;;;;;;;11.90;7.50;;;;;;;-5.01;100.00;100713.07;105690;1257;62055;-74
2024/01/08 00:25:23;;;;;;;12.50;9.10;;;;;;;-5.01;100.00;100712.05;105718;1258;60515;-71
2024/01/08 00:27:50;;;;;;;12.80;8.90;;;;;;;-4.99;100.00;100708.14;105735;1258;71800;-73
2024/01/08 00:30:17;;;;;;;13.40;8.10;;;;;;;-4.97;100.00;100713.44;106958;1253;63807;-71
2024/01/08 00:32:47;;;;;;;12.10;7.50;;;;;;;-4.99;100.00;100711.38;107734;1257;72675;-71
2024/01/08 00:35:15;;;;;;;11.50;8.30;;;;;;;-5.00;100.00;100711.90;108453;1254;60804;-72
2024/01/08 00:40:29;;;;;;;15.20;9.90;;;;;;;-5.01;100.00;100711.70;103357;1290;600731;-73
2024/01/08 00:42:58;;;;;;;14.10;9.20;;;;;;;-5.03;100.00;100711.19;105171;1266;60578;-72
2024/01/08 00:45:25;;;;;;;19.00;10.70;;;;;;;-5.03;100.00;100709.83;105122;1266;59359;-74
2024/01/08 00:47:52;;;;;;;18.10;9.90;;;;;;;-5.05;100.00;100713.22;105241;1264;71323;-72
2024/01/08 00:50:19;;;;;;;16.30;10.20;;;;;;;-5.05;100.00;100709.14;105207;1264;62436;-71
2024/01/08 00:52:46;;;;;;;13.30;9.10;;;;;;;-5.08;100.00;100707.59;105028;1264;194578;-72
2024/01/08 00:55:13;;;;;;;14.90;9.50;;;;;;;-5.10;100.00;100702.64;106061;1261;60489;-73
2024/01/08 00:57:40;;;;;;;14.70;10.30;;;;;;;-5.14;100.00;100703.29;106056;1253;59240;-73
2024/01/08 01:00:11;;;;;;;14.70;10.30;;;;;;;-5.14;100.00;100708.06;105930;1251;72320;-73
2024/01/08 01:02:40;;;;;;;19.60;9.60;;;;;;;-5.14;100.00;100705.34;106049;1253;63706;-73
2024/01/08 01:05:07;;;;;;;16.10;9.90;;;;;;;-5.13;100.00;100704.67;105981;1251;72500;-74
2024/01/08 01:07:35;;;;;;;15.40;10.30;;;;;;;-5.14;100.00;100704.82;106007;1253;62054;-73
2024/01/08 01:10:02;;;;;;;13.90;9.30;;;;;;;-5.12;100.00;100709.09;106025;1253;59547;-73
2024/01/08 01:12:30;;;;;;;19.60;9.90;;;;;;;-5.14;100.00;100705.85;106029;1250;73030;-74
2024/01/08 01:14:57;;;;;;;13.70;8.70;;;;;;;-5.22;100.00;100708.70;105986;1254;63820;-74
2024/01/08 01:17:24;;;;;;;16.80;10.40;;;;;;;-5.26;100.00;100704.77;106078;1251;72726;-74
2024/01/08 01:19:52;;;;;;;13.10;8.30;;;;;;;-5.25;100.00;100706.81;105903;1251;61678;-72
2024/01/08 01:22:19;;;;;;;15.00;8.90;;;;;;;-5.25;100.00;100708.52;106029;1250;60104;-73
2024/01/08 01:24:46;;;;;;;12.80;9.10;;;;;;;-5.29;100.00;100710.70;105963;1253;72688;-74
2024/01/08 01:27:13;;;;;;;14.30;9.80;;;;;;;-5.32;100.00;100713.41;106121;1254;62474;-72
2024/01/08 01:29:40;;;;;;;15.50;9.10;;;;;;;-5.35;100.00;100714.06;105998;1251;72651;-72
2024/01/08 01:32:07;;;;;;;15.80;9.10;;;;;;;-5.38;100.00;100719.84;106020;1253;61009;-72
2024/01/08 01:34:34;;;;;;;12.20;8.60;;;;;;;-5.39;100.00;100720.02;105953;1251;60111;-72
2024/01/08 01:37:01;;;;;;;13.90;8.60;;;;;;;-5.37;100.00;100720.88;105945;1254;70640;-72
2024/01/08 01:39:29;;;;;;;15.70;9.20;;;;;;;-5.33;100.00;100718.00;106052;1253;63955;-73
2024/01/08 01:41:56;;;;;;;14.60;10.00;;;;;;;-5.30;100.00;100717.34;106043;1254;72549;-73
2024/01/08 01:44:23;;;;;;;14.20;9.50;;;;;;;-5.29;100.00;100716.66;106092;1254;62004;-72
2024/01/08 01:46:51;;;;;;;14.80;8.40;;;;;;;-5.28;100.00;100718.04;106006;1251;60113;-73
2024/01/08 01:49:19;;;;;;;15.80;10.50;;;;;;;-5.30;100.00;100716.49;106060;1252;71843;-73
2024/01/08 01:51:47;;;;;;;18.40;10.40;;;;;;;-5.30;100.00;100723.80;105906;1255;63617;-72
2024/01/08 01:54:16;;;;;;;17.00;9.90;;;;;;;-5.32;100.00;100717.84;106029;1250;71245;-74
2024/01/08 01:56:46;;;;;;;18.10;10.80;;;;;;;-5.31;100.00;100724.66;106089;1254;60869;-73
2024/01/08 01:59:13;;;;;;;15.60;9.00;;;;;;;-5.34;100.00;100723.27;106004;1254;59698;-73
2024/01/08 02:01:41;;;;;;;15.10;9.30;;;;;;;-5.41;100.00;100723.06;105888;1251;73026;-73
2024/01/08 02:04:08;;;;;;;16.90;10.30;;;;;;;-5.47;100.00;100724.38;106125;1251;62403;-73
2024/01/08 02:06:35;;;;;;;17.10;10.20;;;;;;;-5.55;100.00;100720.75;106076;1254;72734;-74
2024/01/08 02:09:03;;;;;;;16.90;11.10;;;;;;;-5.58;100.00;100722.61;106004;1255;62139;-73
2024/01/08 02:11:30;;;;;;;18.50;10.00;;;;;;;-5.63;100.00;100732.78;105952;1250;60222;-74
2024/01/08 02:13:57;;;;;;;16.50;12.00;;;;;;;-5.70;100.00;100730.17;106050;1251;71543;-73
2024/01/08 02:16:24;;;;;;;17.40;10.30;;;;;;;-5.76;100.00;100726.55;105974;1257;62460;-74
2024/01/08 02:18:51;;;;;;;20.10;10.90;;;;;;;-5.74;100.00;100727.91;106082;1251;71212;-75
2024/01/08 02:21:18;;;;;;;14.10;9.20;;;;;;;-5.70;100.00;100729.15;105946;1251;61696;-74
2024/01/08 02:23:45;;;;;;;13.20;9.50;;;;;;;-5.70;100.00;100734.59;105939;1251;60215;-74
2024/01/08 02:26:12;;;;;;;13.50;7.90;;;;;;;-5.76;100.00;100727.90;105969;1251;73057;-73
2024/01/08 02:28:39;;;;;;;17.00;9.70;;;;;;;-5.79;100.00;100735.20;105878;1257;63681;-74
2024/01/08 02:31:06;;;;;;;19.50;9.70;;;;;;;-5.84;100.00;100731.59;105918;1254;71099;-72
2024/01/08 02:33:33;;;;;;;16.70;10.50;;;;;;;-5.87;100.00;100734.98;106015;1255;60767;-74
2024/01/08 02:36:00;;;;;;;15.50;10.90;;;;;;;-5.91;100.00;100724.21;106071;1254;59519;-73
2024/01/08 02:38:27;;;;;;;19.50;11.40;;;;;;;-5.91;100.00;100730.17;105875;1255;72035;-73
2024/01/08 02:40:57;;;;;;;16.30;10.20;;;;;;;-5.87;100.00;100732.07;106022;1254;64014;-73
2024/01/08 02:43:24;;;;;;;15.10;9.50;;;;;;;-5.87;100.00;100729.69;106340;1255;72832;-71
2024/01/08 02:45:51;;;;;;;20.90;11.30;;;;;;;-5.91;100.00;100728.30;106451;1254;61023;-71
2024/01/08 02:48:18;;;;;;;18.20;9.60;;;;;;;-5.94;100.00;100725.89;106293;1250;60037;-71
2024/01/08 02:50:45;;;;;;;17.70;10.10;;;;;;;-5.95;100.00;100726.06;106225;1254;72976;-73
2024/01/08 02:53:12;;;;;;;17.50;10.60;;;;;;;-5.97;100.00;100723.67;106166;1254;62408;-74
2024/01/08 02:55:39;;;;;;;18.50;10.90;;;;;;;-5.97;100.00;100723.50;106129;1251;71240;-74
2024/01/08 02:58:06;;;;;;;18.40;10.30;;;;;;;-5.95;100.00;100718.41;106190;1254;62065;-72
2024/01/08 03:00:33;;;;;;;20.80;10.70;;;;;;;-5.96;100.00;100723.52;106220;1251;60371;-72
2024/01/08 03:03:00;;;;;;;21.80;11.80;;;;;;;-6.02;100.00;100719.88;106230;1252;72969;-73
2024/01/08 03:05:28;;;;;;;15.90;9.20;;;;;;;-6.06;100.00;100723.27;106197;1254;63934;-74
2024/01/08 03:07:55;;;;;;;15.50;9.10;;;;;;;-6.06;100.00;100719.52;106142;1254;71693;-73
2024/01/08 03:10:22;;;;;;;16.20;9.60;;;;;;;-6.10;100.00;100714.88;106060;1252;62062;-72
2024/01/08 03:12:50;;;;;;;16.70;9.60;;;;;;;-6.15;100.00;100719.25;106111;1251;60326;-72
2024/01/08 03:15:18;;;;;;;14.00;9.00;;;;;;;-6.21;100.00;100719.52;106079;1253;72880;-72
2024/01/08 03:17:45;;;;;;;17.20;9.80;;;;;;;-6.26;100.00;100716.77;106051;1251;62299;-73
2024/01/08 03:20:11;;;;;;;14.10;9.70;;;;;;;-6.23;100.00;100721.89;106015;1254;71677;-72
2024/01/08 03:22:39;;;;;;;16.20;10.80;;;;;;;-6.20;100.00;100717.67;106074;1253;61984;-71
2024/01/08 03:25:07;;;;;;;20.50;11.80;;;;;;;-6.21;100.00;100726.50;106173;1254;60001;-70
2024/01/08 03:27:33;;;;;;;16.80;8.90;;;;;;;-6.24;100.00;100732.42;106159;1253;72940;-72
2024/01/08 03:30:00;;;;;;;20.80;10.70;;;;;;;-6.32;100.00;100723.85;106195;1254;62371;-73
2024/01/08 03:32:28;;;;;;;18.90;11.00;;;;;;;-6.39;100.00;100722.40;106185;1254;72271;-73
2024/01/08 03:34:55;;;;;;;18.60;10.70;;;;;;;-6.43;100.00;100715.55;106089;1254;61999;-72
2024/01/08 03:37:22;;;;;;;18.40;10.80;;;;;;;-6.42;100.00;100716.40;106150;1250;61354;-73
2024/01/08 03:39:49;;;;;;;17.50;11.40;;;;;;;-6.42;100.00;100712.35;106143;1249;71545;-75
2024/01/08 03:42:16;;;;;;;19.40;11.60;;;;;;;-6.39;100.00;100721.21;105865;1251;62509;-74
2024/01/08 03:44:43;;;;;;;16.10;10.90;;;;;;;-6.39;100.00;100722.75;105892;1254;71218;-74
2024/01/08 03:47:10;;;;;;;16.50;10.10;;;;;;;-6.40;100.00;100724.27;106243;1254;63182;-73
2024/01/08 03:49:37;;;;;;;21.20;11.60;;;;;;;-6.39;100.00;100731.26;106226;1254;60081;-74
2024/01/08 03:52:04;;;;;;;17.90;11.40;;;;;;;-6.44;100.00;100730.69;106159;1251;72969;-73
2024/01/08 03:54:31;;;;;;;18.60;10.90;;;;;;;-6.50;100.00;100731.81;106127;1253;64028;-74
2024/01/08 03:56:58;;;;;;;19.70;11.10;;;;;;;-6.52;100.00;100732.12;106233;1254;71529;-74
2024/01/08 03:59:25;;;;;;;16.30;10.70;;;;;;;-6.50;100.00;100737.59;106162;1251;60148;-74
2024/01/08 04:01:52;;;;;;;19.60;11.50;;;;;;;-6.48;100.00;100743.05;105933;1254;60254;-72
2024/01/08 04:04:19;;;;;;;19.30;10.40;;;;;;;-6.49;100.00;100743.20;106033;1251;73098;-74
2024/01/08 04:06:46;;;;;;;18.50;11.60;;;;;;;-6.50;100.00;100740.48;106110;1251;62427;-73
2024/01/08 04:09:14;;;;;;;17.50;10.40;;;;;;;-6.51;100.00;100745.23;106109;1254;72529;-73
2024/01/08 04:11:44;;;;;;;21.80;11.00;;;;;;;-6.51;100.00;100742.35;106049;1254;62007;-71
2024/01/08 04:14:14;;;;;;;22.30;11.70;;;;;;;-6.52;100.00;100738.07;105999;1263;59663;-73
2024/01/08 04:16:42;;;;;;;19.50;12.20;;;;;;;-6.53;100.00;100733.30;106128;1251;71808;-74
2024/01/08 04:19:09;;;;;;;19.70;13.20;;;;;;;-6.53;100.00;100730.06;106144;1252;62393;-74
2024/01/08 04:21:36;;;;;;;21.40;10.70;;;;;;;-6.51;100.00;100739.96;107935;1253;70920;-72
2024/01/08 04:24:03;;;;;;;19.40;11.60;;;;;;;-6.54;100.00;100737.38;108539;1250;62027;-72
2024/01/08 04:26:31;;;;;;;20.70;12.10;;;;;;;-6.61;100.00;100731.84;109507;1251;59074;-72
2024/01/08 04:28:59;;;;;;;20.40;11.30;;;;;;;-6.64;100.00;100738.80;109614;1250;71410;-72
2024/01/08 04:31:26;;;;;;;20.00;12.60;;;;;;;-6.66;100.00;100733.49;106800;1250;61519;-75
2024/01/08 04:33:55;;;;;;;21.50;11.50;;;;;;;-6.69;100.00;100738.23;106310;1252;71355;-73
2024/01/08 04:36:25;;;;;;;20.70;11.50;;;;;;;-6.66;100.00;100739.27;106236;1254;60484;-72
2024/01/08 04:38:52;;;;;;;25.80;11.50;;;;;;;-6.65;100.00;100745.73;106232;1251;60182;-75
2024/01/08 04:41:19;;;;;;;20.80;11.90;;;;;;;-6.71;100.00;100752.14;106180;1254;73341;-74
2024/01/08 04:43:47;;;;;;;21.40;10.90;;;;;;;-6.76;100.00;100743.91;106226;1253;63955;-74
2024/01/08 04:46:14;;;;;;;19.60;11.20;;;;;;;-6.78;100.00;100755.45;106054;1254;72537;-74
2024/01/08 04:48:42;;;;;;;22.00;12.50;;;;;;;-6.80;100.00;100751.67;106150;1254;61806;-75
2024/01/08 04:51:22;;;;;;;24.10;14.00;;;;;;;-6.82;100.00;100756.08;106204;1249;60421;-72
2024/01/08 04:53:50;;;;;;;18.20;11.10;;;;;;;-6.83;100.00;100749.92;106323;1254;72901;-73
2024/01/08 04:56:24;;;;;;;20.70;10.20;;;;;;;-6.83;100.00;100759.30;106282;1254;63852;-73
2024/01/08 04:58:51;;;;;;;18.10;8.50;;;;;;;-6.84;100.00;100756.55;106290;1250;72490;-72
2024/01/08 05:01:18;;;;;;;16.80;10.30;;;;;;;-6.84;100.00;100749.08;106411;1251;61947;-74
2024/01/08 05:03:45;;;;;;;18.20;10.30;;;;;;;-6.82;100.00;100746.04;106453;1251;60546;-73
2024/01/08 05:06:13;;;;;;;17.50;10.30;;;;;;;-6.80;100.00;100754.57;106525;1250;72914;-74
2024/01/08 05:08:40;;;;;;;17.20;11.30;;;;;;;-6.77;100.00;100760.21;106304;1254;63906;-74
2024/01/08 05:11:07;;;;;;;21.80;11.70;;;;;;;-6.75;100.00;100758.36;106121;1254;72484;-74
2024/01/08 05:13:34;;;;;;;20.70;10.60;;;;;;;-6.75;100.00;100759.90;106195;1254;60497;-72
2024/01/08 05:16:02;;;;;;;20.20;12.30;;;;;;;-6.73;100.00;100758.90;106244;1254;60520;-73
2024/01/08 05:18:30;;;;;;;22.90;12.30;;;;;;;-6.71;100.00;100757.07;106209;1251;72772;-72
2024/01/08 05:20:57;;;;;;;24.60;11.20;;;;;;;-6.69;100.00;100756.59;106171;1253;63850;-74
2024/01/08 05:23:24;;;;;;;20.40;10.90;;;;;;;-6.74;100.00;100750.23;106139;1254;72655;-73
2024/01/08 05:25:58;;;;;;;27.10;12.40;;;;;;;-6.78;100.00;100751.36;106105;1249;60552;-72
2024/01/08 05:28:28;;;;;;;17.00;10.70;;;;;;;-6.83;100.00;100753.52;106203;1251;60758;-73
2024/01/08 05:30:55;;;;;;;20.70;11.80;;;;;;;-6.86;100.00;100760.27;106077;1254;72978;-72
2024/01/08 05:33:25;;;;;;;21.40;10.00;;;;;;;-6.85;100.00;100768.95;106145;1253;62735;-74
2024/01/08 05:35:54;;;;;;;16.90;11.50;;;;;;;-6.91;100.00;100766.83;106138;1253;72520;-72
2024/01/08 05:38:22;;;;;;;19.50;10.80;;;;;;;-6.99;100.00;100767.73;106130;1254;61868;-73
2024/01/08 05:40:49;;;;;;;18.20;10.70;;;;;;;-7.06;100.00;100769.51;106108;1253;60447;-74
2024/01/08 05:43:16;;;;;;;19.20;11.30;;;;;;;-7.12;100.00;100773.50;106024;1253;73743;-75
2024/01/08 05:45:43;;;;;;;19.70;10.80;;;;;;;-7.16;100.00;100770.05;106049;1254;62308;-74
2024/01/08 05:48:10;;;;;;;24.80;13.80;;;;;;;-7.20;100.00;100771.50;106046;1254;73930;-75
2024/01/08 05:50:40;;;;;;;20.80;11.90;;;;;;;-7.30;100.00;100771.71;105960;1254;60638;-74
2024/01/08 05:53:08;;;;;;;19.90;10.80;;;;;;;-7.37;100.00;100771.77;106092;1254;60437;-74
2024/01/08 05:55:34;;;;;;;24.10;13.20;;;;;;;-7.47;100.00;100777.23;106173;1253;73801;-73
2024/01/08 05:58:03;;;;;;;23.30;11.70;;;;;;;-7.53;100.00;100785.94;106200;1254;63809;-75
2024/01/08 06:00:30;;;;;;;18.80;10.20;;;;;;;-7.55;100.00;100792.88;106101;1254;72528;-75
2024/01/08 06:02:58;;;;;;;22.90;12.20;;;;;;;-7.61;100.00;100786.33;106109;1254;61018;-74
2024/01/08 06:05:25;;;;;;;22.20;12.80;;;;;;;-7.65;100.00;100785.75;106093;1254;60368;-75
2024/01/08 06:07:52;;;;;;;21.40;11.60;;;;;;;-7.65;100.00;100791.02;106091;1255;73927;-75
2024/01/08 06:10:19;;;;;;;27.80;11.10;;;;;;;-7.69;100.00;100780.42;106106;1253;63834;-74
2024/01/08 06:12:46;;;;;;;22.50;11.80;;;;;;;-7.72;100.00;100784.63;106081;1253;71640;-75
2024/01/08 06:15:12;;;;;;;21.20;11.20;;;;;;;-7.75;100.00;100781.85;105896;1256;61034;-75
2024/01/08 06:17:40;;;;;;;22.30;11.50;;;;;;;-7.79;100.00;100786.36;106107;1253;60575;-76
2024/01/08 06:20:13;;;;;;;23.00;11.70;;;;;;;-7.84;100.00;100789.50;106184;1255;72535;-74
2024/01/08 06:22:41;;;;;;;19.50;11.70;;;;;;;-7.86;100.00;100794.73;106090;1254;63847;-75
2024/01/08 06:25:08;;;;;;;20.30;10.50;;;;;;;-7.85;100.00;100792.88;105932;1254;71064;-75
2024/01/08 06:27:35;;;;;;;17.20;10.60;;;;;;;-7.81;100.00;100793.80;106151;1256;61814;-74
2024/01/08 06:30:02;;;;;;;16.80;9.30;;;;;;;-7.81;100.00;100791.58;106146;1254;60555;-73
2024/01/08 06:32:30;;;;;;;26.30;12.60;;;;;;;-7.83;100.00;100793.91;106154;1254;73844;-73
2024/01/08 06:34:56;;;;;;;17.60;10.70;;;;;;;-7.85;100.00;100795.59;106144;1251;63009;-75
2024/01/08 06:37:24;;;;;;;19.90;9.80;;;;;;;-7.85;100.00;100802.36;106111;1254;71287;-73
2024/01/08 06:39:51;;;;;;;18.20;9.70;;;;;;;-7.84;100.00;100806.80;106077;1254;61223;-74
2024/01/08 06:42:18;;;;;;;21.10;11.50;;;;;;;-7.81;100.00;100804.48;106111;1249;60463;-75
2024/01/08 06:44:45;;;;;;;21.70;10.40;;;;;;;-7.83;100.00;100804.80;106125;1253;73769;-74
2024/01/08 06:47:12;;;;;;;18.10;10.00;;;;;;;-7.82;100.00;100811.59;106029;1254;63638;-74
2024/01/08 06:49:39;;;;;;;20.60;9.80;;;;;;;-7.84;100.00;100811.04;106047;1253;71185;-76
2024/01/08 06:52:06;;;;;;;19.30;9.40;;;;;;;-7.84;100.00;100812.41;106062;1253;61822;-72
2024/01/08 06:54:34;;;;;;;18.70;10.90;;;;;;;-7.78;100.00;100810.31;106094;1251;60516;-71
2024/01/08 06:57:01;;;;;;;21.60;11.80;;;;;;;-7.77;100.00;100811.00;106275;1254;73552;-74
2024/01/08 06:59:28;;;;;;;20.30;10.60;;;;;;;-7.82;100.00;100819.23;106117;1254;63847;-74
2024/01/08 07:01:55;;;;;;;20.20;10.30;;;;;;;-7.83;100.00;100822.44;106086;1255;71752;-74
2024/01/08 07:04:22;;;;;;;20.20;11.50;;;;;;;-7.81;100.00;100820.09;106153;1253;61904;-74
2024/01/08 07:06:50;;;;;;;20.70;12.50;;;;;;;-7.81;100.00;100819.25;106190;1250;60433;-74
2024/01/08 07:09:17;;;;;;;21.30;11.00;;;;;;;-7.82;100.00;100827.38;106224;1254;73830;-74
2024/01/08 07:11:44;;;;;;;17.00;10.40;;;;;;;-7.85;100.00;100822.22;106136;1251;62640;-74
2024/01/08 07:14:14;;;;;;;16.90;9.00;;;;;;;-7.86;100.00;100818.99;106328;1255;71547;-75
2024/01/08 07:16:41;;;;;;;17.30;9.30;;;;;;;-7.87;100.00;100826.77;106631;1254;60510;-75
2024/01/08 07:19:09;;;;;;;19.40;10.10;;;;;;;-7.94;100.00;100835.98;106573;1254;60447;-72
2024/01/08 07:21:35;;;;;;;15.90;8.90;;;;;;;-8.03;100.00;100827.15;105993;1254;72434;-74
2024/01/08 07:24:03;;;;;;;20.20;11.00;;;;;;;-8.05;100.00;100821.52;106393;1251;64172;-74
2024/01/08 07:26:30;;;;;;;15.20;9.20;;;;;;;-8.01;100.00;100826.52;106439;1251;72572;-73
2024/01/08 07:28:56;;;;;;;13.20;8.60;;;;;;;-7.98;100.00;100818.61;106406;1254;60535;-74
2024/01/08 07:31:25;;;;;;;17.60;9.80;;;;;;;-7.92;100.00;100825.33;106428;1251;60335;-74
2024/01/08 07:33:51;;;;;;;16.70;9.50;;;;;;;-7.88;100.00;100829.13;106570;1250;73812;-74
2024/01/08 07:36:18;;;;;;;15.50;8.50;;;;;;;-7.83;100.00;100825.66;106612;1253;62870;-73
2024/01/08 07:38:45;;;;;;;20.70;9.60;;;;;;;-7.78;100.00;100827.97;107132;1251;71358;-74
2024/01/08 07:41:13;;;;;;;15.00;8.30;;;;;;;-7.75;100.00;100839.05;106844;1251;60533;-73
2024/01/08 07:43:40;;;;;;;21.10;10.80;;;;;;;-7.75;100.00;100836.33;107007;1250;60744;-72
2024/01/08 07:46:07;;;;;;;17.70;9.40;;;;;;;-7.80;100.00;100839.45;106369;1251;73732;-72
2024/01/08 07:48:34;;;;;;;15.00;8.30;;;;;;;-7.84;100.00;100839.73;106151;1255;63716;-73
2024/01/08 07:51:01;;;;;;;16.20;8.60;;;;;;;-7.87;100.00;100841.02;105993;1254;72866;-76
2024/01/08 07:53:30;;;;;;;13.50;8.40;;;;;;;-7.93;100.00;100837.86;106250;1253;62556;-75
2024/01/08 07:55:57;;;;;;;18.30;8.60;;;;;;;-7.91;100.00;100847.23;106071;1249;60433;-75
2024/01/08 07:58:23;;;;;;;18.30;9.10;;;;;;;-7.85;100.00;100847.34;106078;1254;73481;-75
2024/01/08 08:01:02;;;;;;;22.80;11.50;;;;;;;-7.74;100.00;100848.39;106313;1253;63936;-74
2024/01/08 08:03:29;;;;;;;19.50;9.80;;;;;;;-7.65;100.00;100849.05;106335;1255;72400;-76
2024/01/08 08:05:58;;;;;;;14.50;8.60;;;;;;;-7.56;100.00;100853.12;106140;1251;61916;-73
2024/01/08 08:08:25;;;;;;;16.20;9.20;;;;;;;-7.52;100.00;100859.30;106083;1254;60561;-74
2024/01/08 08:10:52;;;;;;;13.90;8.70;;;;;;;-7.56;100.00;100856.00;106790;1252;72675;-72
2024/01/08 08:13:20;;;;;;;13.90;8.30;;;;;;;-7.64;100.00;100853.84;108201;1253;63643;-74
2024/01/08 08:15:47;;;;;;;15.10;8.30;;;;;;;-7.65;100.00;100857.21;108494;1251;72587;-74
2024/01/08 08:18:15;;;;;;;16.50;8.90;;;;;;;-7.64;100.00;100858.09;109413;1250;60746;-74
2024/01/08 08:20:43;;;;;;;16.40;9.30;;;;;;;-7.62;100.00;100857.60;108618;1251;60418;-73
2024/01/08 08:23:12;;;;;;;14.70;8.50;;;;;;;-7.59;100.00;100858.32;106158;1249;72554;-74
2024/01/08 08:25:39;;;;;;;14.80;8.20;;;;;;;-7.61;100.00;100861.69;106160;1253;63823;-75
2024/01/08 08:28:07;;;;;;;16.40;8.00;;;;;;;-7.62;100.00;100857.44;106115;1254;72659;-75
2024/01/08 08:30:34;;;;;;;12.70;7.50;;;;;;;-7.56;100.00;100852.11;106192;1251;60460;-76
2024/01/08 08:33:04;;;;;;;13.70;7.70;;;;;;;-7.51;100.00;100854.39;106103;1251;60439;-76
2024/01/08 08:35:31;;;;;;;11.20;7.80;;;;;;;-7.55;100.00;100855.20;106165;1249;73725;-73
2024/01/08 08:37:59;;;;;;;14.50;7.30;;;;;;;-7.63;100.00;100860.13;106117;1253;63829;-75
2024/01/08 08:40:26;;;;;;;12.50;8.10;;;;;;;-7.69;100.00;100856.46;106270;1251;73713;-74
2024/01/08 08:42:54;;;;;;;17.40;8.20;;;;;;;-7.67;100.00;100853.77;106215;1251;61778;-74
2024/01/08 08:45:21;;;;;;;15.30;7.60;;;;;;;-7.59;100.00;100860.88;106076;1251;60562;-74
2024/01/08 08:47:49;;;;;;;16.00;7.80;;;;;;;-7.52;100.00;100857.79;106110;1249;73699;-74
2024/01/08 08:50:19;;;;;;;17.10;9.20;;;;;;;-7.44;100.00;100861.14;106428;1254;62854;-74
2024/01/08 08:52:46;;;;;;;12.20;7.50;;;;;;;-7.44;100.00;100869.29;106148;1253;71373;-74
2024/01/08 08:55:16;;;;;;;19.00;8.40;;;;;;;-7.43;100.00;100865.58;106073;1250;62020;-74
2024/01/08 08:57:43;;;;;;;12.10;7.30;;;;;;;-7.41;100.00;100867.80;106074;1251;60415;-75
2024/01/08 09:00:10;;;;;;;13.80;8.80;;;;;;;-7.40;100.00;100870.19;106121;1253;74779;-74
2024/01/08 09:02:39;;;;;;;14.00;7.90;;;;;;;-7.42;100.00;100867.98;106084;1254;63814;-73
2024/01/08 09:05:07;;;;;;;12.50;7.70;;;;;;;-7.42;100.00;100871.70;106002;1254;71194;-75
2024/01/08 09:07:35;;;;;;;14.00;7.10;;;;;;;-7.41;100.00;100867.80;106122;1251;61936;-76
2024/01/08 09:10:05;;;;;;;9.20;6.20;;;;;;;-7.43;100.00;100866.24;106054;1254;60448;-76
2024/01/08 09:12:32;;;;;;;14.10;7.70;;;;;;;-7.47;100.00;100861.42;105963;1255;72636;-74
2024/01/08 09:14:59;;;;;;;17.40;8.60;;;;;;;-7.49;100.00;100859.86;106117;1254;63158;-75
2024/01/08 09:17:29;;;;;;;13.40;7.60;;;;;;;-7.46;100.00;100865.34;106084;1254;72493;-76
2024/01/08 09:19:56;;;;;;;13.30;7.10;;;;;;;-7.40;100.00;100861.54;106151;1254;63333;-75
2024/01/08 09:22:25;;;;;;;14.30;7.30;;;;;;;-7.42;100.00;100856.75;106176;1253;60459;-74
2024/01/08 09:24:52;;;;;;;12.40;6.70;;;;;;;-7.49;100.00;100857.83;106138;1253;73794;-73
2024/01/08 09:27:21;;;;;;;12.30;6.80;;;;;;;-7.51;100.00;100853.73;106127;1251;63793;-73
2024/01/08 09:29:48;;;;;;;12.40;6.50;;;;;;;-7.46;100.00;100854.13;106098;1251;71696;-74
2024/01/08 09:32:15;;;;;;;12.30;7.10;;;;;;;-7.44;100.00;100854.17;106044;1254;61483;-75
2024/01/08 09:34:42;;;;;;;14.70;7.00;;;;;;;-7.44;100.00;100859.96;105879;1252;60443;-75
2024/01/08 09:37:09;;;;;;;12.40;6.80;;;;;;;-7.46;100.00;100860.42;106101;1250;73819;-75
2024/01/08 09:39:36;;;;;;;13.80;7.60;;;;;;;-7.51;100.00;100859.48;106096;1253;62880;-73
2024/01/08 09:42:05;;;;;;;9.10;5.80;;;;;;;-7.54;100.00;100863.01;106084;1251;73885;-75
2024/01/08 09:44:32;;;;;;;15.20;7.20;;;;;;;-7.54;100.00;100863.86;106017;1254;60543;-74
2024/01/08 09:46:59;;;;;;;15.20;8.60;;;;;;;-7.56;100.00;100857.73;105901;1254;60457;-73
2024/01/08 09:49:29;;;;;;;13.50;8.50;;;;;;;-7.51;100.00;100864.08;105899;1258;73843;-75
2024/01/08 09:51:56;;;;;;;13.10;6.90;;;;;;;-7.46;100.00;100864.51;106057;1253;62451;-74
2024/01/08 09:54:23;;;;;;;13.80;7.80;;;;;;;-7.43;100.00;100858.27;106076;1251;72562;-74
2024/01/08 09:56:52;;;;;;;13.90;7.80;;;;;;;-7.43;100.00;100852.49;105947;1252;60852;-76
2024/01/08 09:59:19;;;;;;;12.10;7.00;;;;;;;-7.40;100.00;100849.33;106110;1254;60618;-75
2024/01/08 10:01:47;;;;;;;9.40;6.10;;;;;;;-7.34;100.00;100853.33;106094;1260;72850;-75
2024/01/08 10:04:15;;;;;;;12.30;6.30;;;;;;;-7.28;100.00;100857.84;106068;1251;63802;-76
2024/01/08 10:06:44;;;;;;;12.80;8.10;;;;;;;-7.26;100.00;100857.18;105971;1249;71866;-75
2024/01/08 10:09:12;;;;;;;11.30;7.50;;;;;;;-7.22;100.00;100856.09;106251;1252;61964;-76
2024/01/08 10:11:39;;;;;;;9.90;6.40;;;;;;;-7.18;100.00;100862.10;106169;1253;60367;-74
2024/01/08 10:14:07;;;;;;;15.00;7.30;;;;;;;-7.14;100.00;100863.66;106065;1254;74093;-76
2024/01/08 10:16:34;;;;;;;10.60;6.60;;;;;;;-7.17;100.00;100861.42;106093;1253;63950;-75
2024/01/08 10:19:23;;;;;;;11.50;6.00;;;;;;;-7.24;100.00;100863.01;106052;1253;73539;-74
2024/01/08 10:22:13;;;;;;;14.30;7.60;;;;;;;-7.25;100.00;100854.83;106147;1252;60957;-74
2024/01/08 10:24:41;;;;;;;13.60;7.20;;;;;;;-7.24;100.00;100850.77;106140;1251;61183;-74
2024/01/08 10:27:11;;;;;;;15.10;7.20;;;;;;;-7.19;100.00;100854.59;106101;1251;72710;-73
2024/01/08 10:29:41;;;;;;;14.70;7.60;;;;;;;-7.24;100.00;100854.86;105995;1254;65169;-73
2024/01/08 10:32:08;;;;;;;9.60;6.00;;;;;;;-7.31;100.00;100857.12;105964;1254;73186;-74
2024/01/08 10:34:38;;;;;;;12.10;7.00;;;;;;;-7.36;100.00;100854.48;105856;1257;62024;-74
2024/01/08 10:37:05;;;;;;;10.50;6.40;;;;;;;-7.37;100.00;100852.09;106133;1253;60358;-75
2024/01/08 10:39:32;;;;;;;11.70;7.80;;;;;;;-7.28;100.00;100856.14;106200;1249;72889;-75
2024/01/08 10:42:16;;;;;;;10.50;7.00;;;;;;;-7.23;100.00;100857.09;106059;1254;64053;-75
2024/01/08 10:44:43;;;;;;;13.80;6.20;;;;;;;-7.20;100.00;100861.20;106149;1254;73274;-73
2024/01/08 10:47:11;;;;;;;15.30;6.80;;;;;;;-7.18;100.00;100859.36;106057;1253;61764;-74
2024/01/08 10:49:45;;;;;;;11.50;6.70;;;;;;;-7.22;100.00;100864.23;106013;1253;60460;-75
2024/01/08 10:52:30;;;;;;;12.10;6.10;;;;;;;-7.23;100.00;100856.06;105991;1254;73230;-75
2024/01/08 10:55:02;;;;;;;15.40;7.70;;;;;;;-7.18;100.00;100863.63;106130;1251;64915;-73
2024/01/08 10:57:38;;;;;;;11.90;6.50;;;;;;;-7.16;100.00;100868.41;106220;1251;72608;-74
2024/01/08 11:00:12;;;;;;;12.50;7.20;;;;;;;-7.15;100.00;100870.97;106174;1251;60433;-76
2024/01/08 11:02:44;;;;;;;13.70;7.30;;;;;;;-7.16;100.00;100872.99;106233;1253;60453;-73
2024/01/08 11:05:13;;;;;;;7.20;4.90;;;;;;;-7.15;100.00;100869.10;106298;1251;73898;-74